Terminal Aerodrome Forecast
Issued by NWS

Home | Current Version | Previous Version | Text Only | Print | Product List | Glossary On
Versions: 1 2 3 4 5 6 7 8 9 10 11 12 13
874
FTUS42 TJSJ 281740
TAFJMZ
TAF
TJMZ 281740Z 2818/2918 27010KT P6SM VCTS BKN040CB
      TEMPO 2818/2820 VRB10KT 3SM TSRA BKN025CB
     FM282300 06005KT P6SM SCT060
     FM291500 27010KT P6SM VCTS SCT025CB SCT050 BKN080
      AMD NOT SKED=

USA.gov is the U.S. government's official web portal to all federal, state and local government web resources and services.